createdAt,value
2018-09-27T00:01:01.201Z,64.20
2018-09-27T00:03:42.228Z,63.10
2018-09-27T00:06:23.748Z,64.60
2018-09-27T00:09:05.640Z,63.80
2018-09-27T00:11:46.513Z,64.90
2018-09-27T00:14:27.080Z,63.20
2018-09-27T00:17:07.991Z,63.50
2018-09-27T00:19:48.592Z,62.80
2018-09-27T00:22:29.589Z,62.50
2018-09-27T00:25:10.497Z,64.10
2018-09-27T00:27:51.038Z,63.10
2018-09-27T00:30:32.925Z,64.00
2018-09-27T00:33:13.469Z,62.30
2018-09-27T00:35:54.568Z,61.80
2018-09-27T00:38:35.048Z,61.70
2018-09-27T00:41:16.003Z,61.80
2018-09-27T00:43:57.877Z,62.00
2018-09-27T00:46:38.648Z,62.90
2018-09-27T00:49:19.596Z,61.60
2018-09-27T00:52:00.288Z,61.40
2018-09-27T00:54:40.876Z,61.10
2018-09-27T00:57:21.656Z,61.10
2018-09-27T01:00:02.261Z,61.20
2018-09-27T01:02:42.990Z,61.40
2018-09-27T01:05:23.901Z,62.40
2018-09-27T01:08:04.788Z,61.40
2018-09-27T01:10:46.093Z,61.20
2018-09-27T01:13:26.796Z,62.30
2018-09-27T01:16:08.516Z,61.30
2018-09-27T01:18:49.382Z,62.00
2018-09-27T01:21:30.724Z,61.30
2018-09-27T01:24:11.144Z,62.40
2018-09-27T01:26:51.754Z,62.10
2018-09-27T01:29:32.973Z,63.80
2018-09-27T01:32:13.956Z,63.20
2018-09-27T01:34:54.937Z,62.10
2018-09-27T01:37:35.431Z,62.10
2018-09-27T01:40:16.675Z,62.30
2018-09-27T01:42:57.132Z,64.00
2018-09-27T01:45:37.598Z,63.60
2018-09-27T01:48:17.989Z,63.50
2018-09-27T01:50:58.740Z,62.50
2018-09-27T01:53:39.700Z,63.40
2018-09-27T01:56:20.468Z,63.20
2018-09-27T01:59:01.133Z,64.50
2018-09-27T02:01:41.920Z,63.30
2018-09-27T02:04:22.346Z,63.90
2018-09-27T02:07:02.996Z,64.30
2018-09-27T02:09:43.769Z,63.60
2018-09-27T02:12:24.696Z,63.20
2018-09-27T02:15:05.466Z,63.20
2018-09-27T02:17:46.077Z,64.10
2018-09-27T02:20:27.557Z,63.20
2018-09-27T02:23:08.458Z,63.40
2018-09-27T02:25:49.685Z,63.00
2018-09-27T02:28:30.552Z,63.20
2018-09-27T02:31:11.736Z,62.70
2018-09-27T02:33:52.265Z,63.00
2018-09-27T02:36:33.447Z,63.00
2018-09-27T02:39:14.275Z,63.30
2018-09-27T02:41:56.191Z,63.80
2018-09-27T02:44:37.060Z,63.00
2018-09-27T02:47:18.455Z,64.40
2018-09-27T02:49:58.825Z,63.50
2018-09-27T02:52:39.674Z,65.00
2018-09-27T02:55:20.819Z,64.80
2018-09-27T02:58:01.884Z,64.90
2018-09-27T03:00:42.668Z,64.30
2018-09-27T03:03:23.363Z,63.50
2018-09-27T03:06:04.555Z,63.10
2018-09-27T03:08:45.368Z,63.40
2018-09-27T03:11:27.568Z,63.80
2018-09-27T03:14:08.750Z,63.70
2018-09-27T03:16:49.210Z,64.50
2018-09-27T03:19:30.331Z,63.90
2018-09-27T03:22:10.865Z,64.50
2018-09-27T03:24:52.005Z,64.10
2018-09-27T03:27:32.564Z,65.00
2018-09-27T03:30:14.430Z,64.70
2018-09-27T03:32:55.660Z,65.30
2018-09-27T03:35:36.314Z,65.50
2018-09-27T03:38:17.111Z,64.70
2018-09-27T03:40:57.671Z,63.80
2018-09-27T03:43:38.574Z,63.90
2018-09-27T03:46:19.329Z,64.30
2018-09-27T03:49:00.181Z,64.50
2018-09-27T03:51:40.779Z,65.30
2018-09-27T03:54:21.379Z,64.30
2018-09-27T03:57:02.855Z,64.60
2018-09-27T03:59:43.324Z,65.10
2018-09-27T04:02:23.792Z,64.50
2018-09-27T04:05:04.451Z,64.80
2018-09-27T04:07:44.844Z,64.50
2018-09-27T04:10:25.790Z,64.70
2018-09-27T04:13:06.765Z,64.80
2018-09-27T04:15:47.663Z,65.10
2018-09-27T04:18:28.369Z,64.20
2018-09-27T04:21:09.271Z,65.30
2018-09-27T04:23:49.831Z,64.70
2018-09-27T04:26:30.407Z,65.00
2018-09-27T04:29:11.340Z,65.60
2018-09-27T04:31:52.254Z,65.90
2018-09-27T04:34:33.177Z,65.10
2018-09-27T04:37:14.451Z,66.70
2018-09-27T04:39:55.088Z,66.40
2018-09-27T04:42:35.647Z,66.10
2018-09-27T04:45:16.204Z,65.80
2018-09-27T04:47:57.631Z,66.30
2018-09-27T04:50:39.519Z,66.10
2018-09-27T04:53:19.871Z,67.00
2018-09-27T04:56:00.801Z,67.00
2018-09-27T04:58:41.184Z,67.00
2018-09-27T05:01:22.345Z,67.10
2018-09-27T05:04:02.753Z,67.70
2018-09-27T05:06:43.524Z,67.30
2018-09-27T05:09:24.493Z,67.70
2018-09-27T05:12:05.844Z,67.80
2018-09-27T05:14:47.010Z,66.80
2018-09-27T05:17:27.913Z,67.60
2018-09-27T05:20:09.629Z,67.30
2018-09-27T05:22:50.244Z,67.80
2018-09-27T05:25:31.258Z,68.60
2018-09-27T05:28:12.891Z,67.90
2018-09-27T05:30:53.839Z,68.60
2018-09-27T05:33:34.407Z,68.90
2018-09-27T05:36:15.915Z,69.70
2018-09-27T05:38:57.542Z,69.20
2018-09-27T05:41:38.427Z,68.70
2018-09-27T05:44:18.946Z,69.80
2018-09-27T05:46:59.778Z,69.60
2018-09-27T05:49:40.702Z,70.40
2018-09-27T05:52:21.124Z,69.00
2018-09-27T05:55:01.777Z,69.80
2018-09-27T05:57:42.336Z,69.60
2018-09-27T06:00:23.090Z,70.40
2018-09-27T06:03:04.326Z,70.30
2018-09-27T06:05:45.287Z,70.80
2018-09-27T06:08:26.285Z,71.70
2018-09-27T06:11:07.167Z,72.80
2018-09-27T06:13:47.758Z,73.40
2018-09-27T06:16:28.802Z,74.00
2018-09-27T06:19:09.634Z,75.00
2018-09-27T06:21:50.781Z,75.50
2018-09-27T06:24:31.917Z,76.10
2018-09-27T06:27:12.620Z,77.20
2018-09-27T06:29:53.425Z,78.50
2018-09-27T06:32:34.239Z,78.40
2018-09-27T06:35:15.071Z,78.30
2018-09-27T06:37:55.940Z,79.20
2018-09-27T06:40:36.814Z,79.80
2018-09-27T06:43:17.273Z,80.30
2018-09-27T06:45:58.219Z,80.40
2018-09-27T06:48:39.086Z,81.60
2018-09-27T06:51:20.066Z,81.70
2018-09-27T06:54:00.535Z,83.10
2018-09-27T06:56:41.525Z,83.00
2018-09-27T06:59:22.224Z,84.20
2018-09-27T07:02:03.711Z,85.60
2018-09-27T07:04:44.417Z,86.90
2018-09-27T07:07:25.117Z,87.50
2018-09-27T07:10:05.657Z,88.00
2018-09-27T07:12:46.911Z,90.00
2018-09-27T07:15:27.626Z,90.40
2018-09-27T07:18:09.014Z,90.40
2018-09-27T07:20:49.557Z,90.70
2018-09-27T07:23:30.187Z,91.10
2018-09-27T07:26:10.510Z,92.00
2018-09-27T07:28:51.056Z,92.00
2018-09-27T07:31:32.074Z,93.30
2018-09-27T07:34:13.564Z,93.10
2018-09-27T07:36:54.122Z,93.90
2018-09-27T07:39:34.684Z,94.80
2018-09-27T07:42:15.748Z,95.50
2018-09-27T07:44:56.326Z,96.50
2018-09-27T07:47:36.971Z,97.20
2018-09-27T07:50:18.329Z,98.30
2018-09-27T07:52:58.741Z,98.30
2018-09-27T07:55:39.634Z,98.90
2018-09-27T07:58:20.173Z,99.80
2018-09-27T08:01:00.850Z,99.90
2018-09-27T08:03:41.369Z,99.90
2018-09-27T08:06:21.961Z,99.90
2018-09-27T08:09:02.876Z,99.80
2018-09-27T08:11:43.637Z,99.90
2018-09-27T08:14:24.377Z,99.90
2018-09-27T08:17:05.551Z,99.90
2018-09-27T08:19:46.496Z,99.90
2018-09-27T08:22:28.419Z,99.90
2018-09-27T08:25:08.965Z,99.90
2018-09-27T08:27:49.918Z,99.90
2018-09-27T08:30:30.732Z,99.90
2018-09-27T08:33:11.350Z,99.90
2018-09-27T08:35:52.143Z,99.90
2018-09-27T08:38:32.593Z,99.90
2018-09-27T08:41:13.665Z,99.90
2018-09-27T08:43:54.608Z,99.90
2018-09-27T08:46:35.656Z,99.90
2018-09-27T08:49:16.091Z,99.90
2018-09-27T08:51:57.038Z,99.90
2018-09-27T08:54:37.607Z,99.90
2018-09-27T08:57:18.553Z,99.90
2018-09-27T08:59:59.824Z,99.90
2018-09-27T09:02:40.475Z,99.90
2018-09-27T09:05:21.386Z,99.90
2018-09-27T09:08:01.853Z,99.90
2018-09-27T09:10:43.037Z,99.90
2018-09-27T09:13:23.477Z,99.90
2018-09-27T09:16:04.677Z,99.90
2018-09-27T09:18:46.116Z,99.90
2018-09-27T09:21:26.539Z,99.90
2018-09-27T09:24:07.432Z,99.90
2018-09-27T09:26:48.159Z,99.90
2018-09-27T09:29:28.693Z,99.90
2018-09-27T09:32:09.983Z,99.90
2018-09-27T09:34:50.588Z,99.90
2018-09-27T09:37:31.423Z,99.90
2018-09-27T09:40:12.417Z,99.90
2018-09-27T09:42:53.010Z,99.90
2018-09-27T09:45:33.944Z,99.90
2018-09-27T09:48:14.852Z,99.90
2018-09-27T09:50:55.676Z,99.90
2018-09-27T09:53:36.622Z,99.90
2018-09-27T09:56:17.541Z,99.90
2018-09-27T09:58:58.022Z,99.90
2018-09-27T10:01:39.051Z,99.90
2018-09-27T10:04:19.632Z,99.90
2018-09-27T10:07:00.946Z,99.90
2018-09-27T10:09:42.967Z,99.90
2018-09-27T10:12:24.199Z,99.90
2018-09-27T10:15:05.138Z,99.90
2018-09-27T10:17:46.040Z,99.90
2018-09-27T10:20:27.895Z,99.90
2018-09-27T10:23:09.280Z,99.90
2018-09-27T10:25:50.393Z,99.90
2018-09-27T10:28:30.960Z,99.90
2018-09-27T10:31:12.602Z,99.90
2018-09-27T10:33:53.116Z,99.90
2018-09-27T10:36:34.291Z,99.90
2018-09-27T10:39:14.922Z,99.90
2018-09-27T10:41:56.002Z,99.90
2018-09-27T10:44:36.745Z,99.90
2018-09-27T10:47:17.780Z,99.90
2018-09-27T10:49:58.519Z,99.90
2018-09-27T10:52:39.704Z,99.90
2018-09-27T10:55:21.536Z,99.90
2018-09-27T10:58:02.470Z,99.90
2018-09-27T11:00:43.744Z,99.50
2018-09-27T11:03:24.179Z,98.80
2018-09-27T11:06:05.185Z,98.00
2018-09-27T11:08:45.949Z,97.50
2018-09-27T11:11:26.988Z,96.20
2018-09-27T11:14:07.939Z,97.10
2018-09-27T11:16:48.604Z,97.50
2018-09-27T11:19:29.131Z,98.30
2018-09-27T11:22:10.348Z,98.60
2018-09-27T11:24:50.814Z,99.20
2018-09-27T11:27:31.725Z,99.10
2018-09-27T11:30:17.869Z,98.80
2018-09-27T11:32:58.906Z,98.90
2018-09-27T11:35:39.611Z,98.40
2018-09-27T11:38:20.161Z,96.30
2018-09-27T11:41:01.033Z,93.10
2018-09-27T11:43:41.517Z,86.80
2018-09-27T11:46:22.264Z,79.10
2018-09-27T11:49:02.735Z,73.50
2018-09-27T11:51:43.919Z,72.10
2018-09-27T11:54:24.433Z,69.40
2018-09-27T11:57:06.530Z,66.70
2018-09-27T11:59:47.030Z,64.20
2018-09-27T12:02:27.781Z,61.60
2018-09-27T12:05:08.351Z,59.30
2018-09-27T12:07:48.914Z,56.80
2018-09-27T12:10:30.057Z,56.60
2018-09-27T12:13:10.610Z,56.70
2018-09-27T12:15:51.445Z,57.10
2018-09-27T12:18:32.289Z,58.00
2018-09-27T12:21:13.975Z,58.90
2018-09-27T12:23:54.741Z,58.20
2018-09-27T12:26:35.554Z,56.80
2018-09-27T12:29:16.526Z,59.10
2018-09-27T12:31:58.259Z,57.60
2018-09-27T12:34:39.223Z,57.30
2018-09-27T12:37:20.106Z,56.70
2018-09-27T12:40:00.706Z,58.40
2018-09-27T12:42:41.576Z,56.80
2018-09-27T12:45:22.266Z,55.10
2018-09-27T12:48:03.589Z,54.60
2018-09-27T12:50:44.714Z,54.60
2018-09-27T12:53:25.867Z,54.70
2018-09-27T12:56:06.913Z,54.90
2018-09-27T12:58:47.645Z,55.20
2018-09-27T13:01:28.350Z,55.80
2018-09-27T13:04:09.309Z,54.80
2018-09-27T13:06:50.049Z,55.50
2018-09-27T13:09:30.786Z,55.00
2018-09-27T13:12:11.761Z,55.90
2018-09-27T13:14:53.175Z,55.20
2018-09-27T13:17:35.018Z,55.50
2018-09-27T13:20:16.380Z,56.20
2018-09-27T13:22:57.327Z,55.30
2018-09-27T13:25:38.336Z,55.00
2018-09-27T13:28:18.945Z,56.00
2018-09-27T13:30:59.843Z,56.20
2018-09-27T13:33:40.432Z,56.20
2018-09-27T13:36:21.281Z,55.80
2018-09-27T13:39:01.770Z,55.90
2018-09-27T13:41:42.628Z,57.00
2018-09-27T13:44:23.193Z,55.70
2018-09-27T13:47:04.265Z,56.40
2018-09-27T13:49:46.532Z,57.40
2018-09-27T13:52:27.324Z,57.10
2018-09-27T13:55:08.838Z,57.70
2018-09-27T13:57:49.407Z,58.20
2018-09-27T14:00:29.898Z,57.30
2018-09-27T14:03:10.727Z,58.10
2018-09-27T14:05:51.560Z,59.10
2018-09-27T14:08:32.138Z,58.80
2018-09-27T14:11:12.823Z,57.00
2018-09-27T14:13:54.600Z,58.00
2018-09-27T14:16:35.247Z,57.60
2018-09-27T14:19:15.888Z,58.50
2018-09-27T14:21:56.404Z,58.30
2018-09-27T14:24:37.226Z,57.30
2018-09-27T14:27:18.109Z,56.60
2018-09-27T14:29:58.677Z,58.20
2018-09-27T14:32:39.540Z,58.60
2018-09-27T14:35:20.321Z,58.40
2018-09-27T14:38:01.192Z,58.20
2018-09-27T14:40:42.208Z,56.40
2018-09-27T14:43:22.857Z,55.30
2018-09-27T14:46:04.756Z,57.00
2018-09-27T14:48:45.585Z,58.90
2018-09-27T14:51:26.722Z,60.80
2018-09-27T14:54:08.020Z,60.40
2018-09-27T14:56:48.990Z,61.70
2018-09-27T14:59:30.453Z,61.70
2018-09-27T15:02:11.975Z,62.30
2018-09-27T15:04:53.437Z,62.90
2018-09-27T15:07:33.840Z,65.00
2018-09-27T15:10:14.908Z,66.40
2018-09-27T15:12:55.616Z,70.10
2018-09-27T15:15:36.312Z,72.60
2018-09-27T15:18:17.291Z,74.40
2018-09-27T15:20:58.611Z,74.40
2018-09-27T15:23:39.557Z,76.30
2018-09-27T15:26:20.972Z,79.80
2018-09-27T15:29:01.437Z,79.90
2018-09-27T15:31:43.018Z,81.80
2018-09-27T15:34:23.592Z,82.10
2018-09-27T15:37:04.399Z,83.30
2018-09-27T15:39:44.875Z,84.40
2018-09-27T15:42:25.423Z,87.10
2018-09-27T15:45:05.999Z,86.20
2018-09-27T15:47:46.920Z,89.40
2018-09-27T15:50:27.970Z,91.90
2018-09-27T15:53:08.603Z,92.20
2018-09-27T15:55:49.340Z,92.20
2018-09-27T16:03:37.467Z,94.40
2018-09-27T16:06:18.473Z,93.70
2018-09-27T16:08:59.903Z,95.30
2018-09-27T16:11:41.649Z,96.30
2018-09-27T16:14:22.675Z,96.60
2018-09-27T16:17:03.856Z,98.30
2018-09-27T16:19:45.295Z,99.20
2018-09-27T16:22:26.236Z,99.90
2018-09-27T16:25:07.516Z,99.90
2018-09-27T16:27:48.375Z,99.90
2018-09-27T16:30:29.236Z,99.90
2018-09-27T16:33:09.699Z,99.90
2018-09-27T16:35:51.612Z,99.90
2018-09-27T16:38:32.859Z,99.90
2018-09-27T16:41:13.459Z,99.90
2018-09-27T16:43:54.411Z,99.90
2018-09-27T16:46:35.120Z,99.90
2018-09-27T16:49:15.622Z,99.90
2018-09-27T16:51:56.516Z,99.90
2018-09-27T16:54:37.678Z,99.90
2018-09-27T16:57:18.268Z,99.90
2018-09-27T16:59:59.291Z,99.90
2018-09-27T17:02:39.749Z,99.90
2018-09-27T17:05:20.752Z,99.90
2018-09-27T17:08:01.348Z,99.90
2018-09-27T17:10:42.053Z,99.90
2018-09-27T17:13:23.028Z,99.90
2018-09-27T17:16:04.370Z,99.90
2018-09-27T17:18:45.379Z,99.90
2018-09-27T17:21:26.168Z,99.90
2018-09-27T17:24:07.392Z,99.90
2018-09-27T17:26:48.387Z,99.90
2018-09-27T17:29:29.245Z,99.90
2018-09-27T17:32:10.109Z,99.90
2018-09-27T17:34:50.925Z,99.90
2018-09-27T17:37:31.724Z,99.90
2018-09-27T17:40:12.975Z,99.90
2018-09-27T17:42:54.264Z,99.90
2018-09-27T17:45:34.870Z,99.90
2018-09-27T17:48:16.007Z,99.90
2018-09-27T17:50:57.024Z,99.90
2018-09-27T17:53:37.993Z,99.90
2018-09-27T17:56:18.528Z,99.90
2018-09-27T17:58:59.381Z,99.90
2018-09-27T18:01:40.124Z,99.90
2018-09-27T18:04:21.191Z,99.90
2018-09-27T18:07:02.409Z,99.90
2018-09-27T18:09:43.092Z,99.90
2018-09-27T18:12:23.891Z,99.90
2018-09-27T18:15:04.679Z,99.90
2018-09-27T18:17:45.582Z,99.90
2018-09-27T18:20:26.727Z,99.90
2018-09-27T18:23:07.854Z,99.90
2018-09-27T18:25:48.799Z,99.90
2018-09-27T18:28:29.643Z,99.90
2018-09-27T18:31:10.815Z,99.90
2018-09-27T18:33:51.499Z,99.90
2018-09-27T18:36:32.297Z,99.90
2018-09-27T18:39:13.373Z,99.90
2018-09-27T18:41:54.283Z,99.90
2018-09-27T18:44:35.216Z,99.90
2018-09-27T18:47:16.111Z,99.90
2018-09-27T18:49:56.675Z,99.90
2018-09-27T18:52:37.477Z,99.90
2018-09-27T18:55:18.390Z,99.90
2018-09-27T18:57:59.531Z,99.90
2018-09-27T19:00:40.261Z,99.90
2018-09-27T19:03:20.988Z,99.90
2018-09-27T19:06:01.688Z,99.90
2018-09-27T19:08:42.637Z,99.90
2018-09-27T19:11:23.383Z,99.90
2018-09-27T19:14:04.900Z,99.90
2018-09-27T19:16:45.637Z,99.90
2018-09-27T19:19:26.872Z,99.90
2018-09-27T19:22:09.204Z,99.90
2018-09-27T19:24:50.009Z,99.90
2018-09-27T19:27:30.839Z,99.90
2018-09-27T19:30:11.303Z,99.90
2018-09-27T19:32:51.862Z,99.90
2018-09-27T19:35:32.806Z,99.90
2018-09-27T19:38:13.726Z,99.90
2018-09-27T19:40:54.268Z,99.90
2018-09-27T19:43:34.799Z,99.90
2018-09-27T19:46:15.404Z,99.90
2018-09-27T19:48:55.967Z,99.90
2018-09-27T19:51:36.634Z,99.90
2018-09-27T19:54:17.420Z,99.90
2018-09-27T19:56:58.119Z,99.90
2018-09-27T19:59:39.369Z,99.90
2018-09-27T20:02:20.385Z,99.90
2018-09-27T20:05:01.378Z,99.90
2018-09-27T20:07:41.903Z,99.90
2018-09-27T20:10:22.692Z,99.90
2018-09-27T20:13:04.318Z,99.90
2018-09-27T20:15:45.176Z,99.90
2018-09-27T20:18:25.879Z,99.90
2018-09-27T20:21:06.660Z,99.90
2018-09-27T20:23:47.318Z,99.90
2018-09-27T20:26:28.010Z,99.90
2018-09-27T20:29:09.081Z,99.90
2018-09-27T20:31:50.019Z,99.90
2018-09-27T20:34:31.190Z,99.90
2018-09-27T20:37:12.987Z,99.90
2018-09-27T20:39:54.443Z,99.90
2018-09-27T20:42:35.480Z,99.90
2018-09-27T20:45:16.571Z,99.90
2018-09-27T20:47:57.189Z,99.90
2018-09-27T20:50:38.106Z,99.90
2018-09-27T20:53:18.753Z,99.90
2018-09-27T20:55:59.968Z,99.90
2018-09-27T20:58:40.625Z,99.90
2018-09-27T21:01:21.470Z,99.90
2018-09-27T21:04:02.518Z,99.90
2018-09-27T21:06:43.722Z,99.90
2018-09-27T21:09:24.504Z,99.90
2018-09-27T21:12:05.563Z,99.90
2018-09-27T21:14:47.271Z,99.90
2018-09-27T21:17:28.537Z,99.90
2018-09-27T21:20:09.016Z,99.90
2018-09-27T21:22:50.336Z,99.90
2018-09-27T21:25:30.919Z,99.90
2018-09-27T21:28:11.865Z,99.90
2018-09-27T21:30:53.015Z,99.90
2018-09-27T21:33:33.968Z,99.90
2018-09-27T21:36:14.579Z,99.90
2018-09-27T21:38:55.654Z,99.90
2018-09-27T21:41:36.173Z,99.90
2018-09-27T21:44:16.824Z,99.90
2018-09-27T21:46:57.451Z,99.90
2018-09-27T21:49:38.060Z,99.90
2018-09-27T21:52:19.259Z,99.90
2018-09-27T21:54:59.849Z,99.90
2018-09-27T21:57:40.741Z,99.90
2018-09-27T22:00:21.258Z,99.90
2018-09-27T22:03:02.436Z,99.90
2018-09-27T22:05:43.059Z,99.90
2018-09-27T22:08:23.815Z,99.90
2018-09-27T22:11:05.565Z,99.90
2018-09-27T22:13:47.070Z,99.90
2018-09-27T22:16:27.735Z,99.90
2018-09-27T22:19:08.471Z,99.90
2018-09-27T22:21:48.931Z,99.90
2018-09-27T22:24:29.739Z,99.90
2018-09-27T22:27:10.605Z,99.90
2018-09-27T22:29:51.173Z,99.90
2018-09-27T22:32:32.115Z,99.90
2018-09-27T22:35:12.912Z,99.90
2018-09-27T22:37:53.547Z,99.90
2018-09-27T22:40:34.463Z,99.90
2018-09-27T22:43:15.353Z,99.90
2018-09-27T22:45:55.836Z,99.90
2018-09-27T22:48:36.548Z,99.90
2018-09-27T22:51:17.346Z,99.90
2018-09-27T22:53:58.497Z,99.90
2018-09-27T22:56:39.952Z,99.90
2018-09-27T22:59:21.201Z,99.90
2018-09-27T23:02:01.662Z,99.90
2018-09-27T23:04:42.290Z,99.90
2018-09-27T23:07:23.238Z,99.90
2018-09-27T23:10:04.183Z,99.90
2018-09-27T23:12:45.050Z,99.90
2018-09-27T23:15:25.602Z,99.90
2018-09-27T23:18:06.976Z,99.90
2018-09-27T23:20:47.780Z,99.90
2018-09-27T23:23:28.180Z,99.90
2018-09-27T23:26:09.114Z,99.90
2018-09-27T23:28:49.658Z,99.90
2018-09-27T23:31:30.489Z,99.90
2018-09-27T23:34:11.366Z,99.90
2018-09-27T23:36:51.763Z,99.90
2018-09-27T23:39:32.678Z,99.90
2018-09-27T23:42:13.684Z,99.90
2018-09-27T23:44:54.159Z,99.90
2018-09-27T23:47:35.077Z,99.90
2018-09-27T23:50:16.043Z,99.90
2018-09-27T23:52:56.583Z,99.90
2018-09-27T23:55:37.504Z,99.90
2018-09-27T23:58:18.763Z,99.90
